createdAt,value
2023-01-13T00:00:24.426Z,1.50
2023-01-13T00:02:53.576Z,1.83
2023-01-13T00:05:20.519Z,1.20
2023-01-13T00:07:49.602Z,1.35
2023-01-13T00:10:19.427Z,1.40
2023-01-13T00:12:51.429Z,1.38
2023-01-13T00:15:18.500Z,1.50
2023-01-13T00:17:45.454Z,1.40
2023-01-13T00:20:12.562Z,1.20
2023-01-13T00:22:41.694Z,1.10
2023-01-13T00:25:09.105Z,1.40
2023-01-13T00:27:38.761Z,1.58
2023-01-13T00:30:09.375Z,1.67
2023-01-13T00:32:36.421Z,1.50
2023-01-13T00:35:04.313Z,1.80
2023-01-13T00:37:35.042Z,2.10
2023-01-13T00:40:02.016Z,1.73
2023-01-13T00:42:50.199Z,1.50
2023-01-13T00:45:17.369Z,1.60
2023-01-13T00:47:44.393Z,1.33
2023-01-13T00:50:13.717Z,1.38
2023-01-13T00:52:42.156Z,1.98
2023-01-13T00:55:09.643Z,1.45
2023-01-13T01:00:06.407Z,1.63
2023-01-13T01:02:38.113Z,1.10
2023-01-13T01:05:05.375Z,1.20
2023-01-13T01:07:32.310Z,1.20
2023-01-13T01:09:59.190Z,1.35
2023-01-13T01:12:26.104Z,0.95
2023-01-13T01:14:55.693Z,1.30
2023-01-13T01:17:22.635Z,1.10
2023-01-13T01:19:51.840Z,1.20
2023-01-13T01:22:21.318Z,1.70
2023-01-13T01:24:48.255Z,1.42
2023-01-13T01:27:15.264Z,1.83
2023-01-13T01:29:42.155Z,1.50
2023-01-13T01:32:16.191Z,1.50
2023-01-13T01:34:45.674Z,1.00
2023-01-13T01:37:13.272Z,1.27
2023-01-13T01:39:40.242Z,1.38
2023-01-13T01:42:25.878Z,1.55
2023-01-13T01:44:59.734Z,1.20
2023-01-13T01:47:30.065Z,1.33
2023-01-13T01:49:58.421Z,1.20
2023-01-13T01:52:40.461Z,1.50
2023-01-13T01:55:34.737Z,1.40
2023-01-13T01:58:10.296Z,1.15
2023-01-13T02:00:39.448Z,1.40
2023-01-13T02:03:09.606Z,1.83
2023-01-13T02:05:39.543Z,1.00
2023-01-13T02:08:09.902Z,1.13
2023-01-13T02:10:38.218Z,1.40
2023-01-13T02:13:10.871Z,1.40
2023-01-13T02:15:56.622Z,1.20
2023-01-13T02:18:53.392Z,1.00
2023-01-13T02:24:20.914Z,1.35
2023-01-13T02:27:06.175Z,1.23
2023-01-13T02:30:06.513Z,1.45
2023-01-13T02:32:51.084Z,1.30
2023-01-13T02:35:27.597Z,1.50
2023-01-13T02:37:59.465Z,1.40
2023-01-13T02:41:18.923Z,1.23
2023-01-13T02:44:10.539Z,1.40
2023-01-13T02:47:18.102Z,1.23
2023-01-13T02:49:51.565Z,1.10
2023-01-13T02:52:39.091Z,1.50
2023-01-13T02:55:36.757Z,1.45
2023-01-13T02:58:09.045Z,1.08
2023-01-13T03:00:37.130Z,1.02
2023-01-13T03:03:06.269Z,1.20
2023-01-13T03:05:36.682Z,0.90
2023-01-13T03:08:33.808Z,1.35
2023-01-13T03:11:11.793Z,1.30
2023-01-13T03:14:03.409Z,0.98
2023-01-13T03:16:45.002Z,0.90
2023-01-13T03:19:28.429Z,1.13
2023-01-13T03:22:01.556Z,1.13
2023-01-13T03:24:44.718Z,1.05
2023-01-13T03:27:17.258Z,1.33
2023-01-13T03:29:56.285Z,1.48
2023-01-13T03:32:40.828Z,1.15
2023-01-13T03:35:20.219Z,1.20
2023-01-13T03:38:10.893Z,1.30
2023-01-13T03:40:50.045Z,0.93
2023-01-13T03:43:43.134Z,1.00
2023-01-13T03:46:21.779Z,1.65
2023-01-13T03:48:56.629Z,1.17
2023-01-13T03:51:27.559Z,1.38
2023-01-13T03:54:09.089Z,1.20
2023-01-13T03:56:44.695Z,1.00
2023-01-13T03:59:18.538Z,0.80
2023-01-13T04:02:17.866Z,1.23
2023-01-13T04:05:14.238Z,1.13
2023-01-13T04:07:52.422Z,0.90
2023-01-13T04:10:27.673Z,1.10
2023-01-13T04:13:10.502Z,1.30
2023-01-13T04:15:44.149Z,1.05
2023-01-13T04:18:11.759Z,1.00
2023-01-13T04:20:40.038Z,1.10
2023-01-13T04:23:10.087Z,0.90
2023-01-13T04:25:37.749Z,1.10
2023-01-13T04:28:10.425Z,0.93
2023-01-13T04:30:41.762Z,1.08
2023-01-13T04:33:12.318Z,0.73
2023-01-13T04:35:39.674Z,0.98
2023-01-13T04:43:10.924Z,1.10
2023-01-13T04:45:42.323Z,1.40
2023-01-13T04:48:09.586Z,0.90
2023-01-13T04:50:39.319Z,1.00
2023-01-13T04:53:08.693Z,0.80
2023-01-13T04:55:35.675Z,0.85
2023-01-13T04:58:07.229Z,1.10
2023-01-13T05:00:34.601Z,0.88
2023-01-13T05:03:06.393Z,0.90
2023-01-13T05:05:36.174Z,1.10
2023-01-13T05:08:09.093Z,0.93
2023-01-13T05:10:36.683Z,0.98
2023-01-13T05:13:22.471Z,0.75
2023-01-13T05:16:23.846Z,0.80
2023-01-13T05:18:50.969Z,1.10
2023-01-13T05:21:36.438Z,1.15
2023-01-13T05:24:22.123Z,0.85
2023-01-13T05:26:49.109Z,1.25
2023-01-13T05:29:16.097Z,2.60
2023-01-13T05:31:43.093Z,0.95
2023-01-13T05:34:10.063Z,1.00
2023-01-13T05:36:36.978Z,0.73
2023-01-13T05:39:08.573Z,0.90
2023-01-13T05:41:54.357Z,0.73
2023-01-13T05:44:21.371Z,1.60
2023-01-13T05:46:53.754Z,1.20
2023-01-13T05:49:20.967Z,1.20
2023-01-13T05:51:50.429Z,1.10
2023-01-13T05:54:19.635Z,1.00
2023-01-13T05:56:46.668Z,0.90
2023-01-13T05:59:13.641Z,0.93
2023-01-13T06:01:42.805Z,0.90
2023-01-13T06:04:09.874Z,1.95
2023-01-13T06:06:36.873Z,1.48
2023-01-13T06:09:03.862Z,1.05
2023-01-13T06:11:33.025Z,2.10
2023-01-13T06:14:02.196Z,3.25
2023-01-13T06:16:29.259Z,2.85
2023-01-13T06:18:56.363Z,2.80
2023-01-13T06:21:23.363Z,2.17
2023-01-13T06:23:50.891Z,1.35
2023-01-13T06:26:23.298Z,1.95
2023-01-13T06:28:52.652Z,2.78
2023-01-13T06:31:23.030Z,1.33
2023-01-13T06:34:03.581Z,3.50
2023-01-13T06:36:37.496Z,4.55
2023-01-13T06:39:05.349Z,5.50
2023-01-13T06:41:52.289Z,1.73
2023-01-13T06:46:52.686Z,1.88
2023-01-13T06:49:21.553Z,1.70
2023-01-13T06:51:49.141Z,1.50
2023-01-13T06:54:18.622Z,2.60
2023-01-13T06:56:48.065Z,1.30
2023-01-13T06:59:14.935Z,1.80
2023-01-13T07:01:44.436Z,2.28
2023-01-13T07:06:43.651Z,1.40
2023-01-13T07:09:13.177Z,0.80
2023-01-13T07:11:40.166Z,1.00
2023-01-13T07:14:28.168Z,1.65
2023-01-13T07:16:57.853Z,1.40
2023-01-13T07:19:24.827Z,1.70
2023-01-13T07:21:52.794Z,2.35
2023-01-13T07:24:20.316Z,2.47
2023-01-13T07:26:47.406Z,2.13
2023-01-13T07:29:14.527Z,1.20
2023-01-13T07:31:41.711Z,1.48
2023-01-13T07:34:09.022Z,2.30
2023-01-13T07:36:40.684Z,1.88
2023-01-13T07:39:09.164Z,1.05
2023-01-13T07:41:57.081Z,1.33
2023-01-13T07:44:27.748Z,1.33
2023-01-13T07:46:54.886Z,1.60
2023-01-13T07:49:24.352Z,1.35
2023-01-13T07:51:54.374Z,1.02
2023-01-13T07:54:35.236Z,0.93
2023-01-13T07:57:13.673Z,1.25
2023-01-13T07:59:40.651Z,0.93
2023-01-13T08:02:14.073Z,1.00
2023-01-13T08:05:20.438Z,1.20
2023-01-13T08:07:50.136Z,0.93
2023-01-13T08:10:19.538Z,1.50
2023-01-13T08:13:04.816Z,1.50
2023-01-13T08:15:32.429Z,1.00
2023-01-13T08:18:01.482Z,1.20
2023-01-13T08:20:28.436Z,1.00
2023-01-13T08:22:59.011Z,1.10
2023-01-13T08:25:27.810Z,1.48
2023-01-13T08:27:57.650Z,1.10
2023-01-13T08:30:27.197Z,1.20
2023-01-13T08:32:54.989Z,1.77
2023-01-13T08:35:24.712Z,1.25
2023-01-13T08:37:52.271Z,1.00
2023-01-13T08:40:22.763Z,1.23
2023-01-13T08:42:55.007Z,1.25
2023-01-13T08:45:24.466Z,1.10
2023-01-13T08:47:54.016Z,1.10
2023-01-13T08:50:23.573Z,1.20
2023-01-13T08:52:50.648Z,1.17
2023-01-13T08:55:17.588Z,1.40
2023-01-13T08:57:44.759Z,2.22
2023-01-13T09:00:17.420Z,2.00
2023-01-13T09:02:44.638Z,2.00
2023-01-13T09:05:17.637Z,4.60
2023-01-13T09:07:49.360Z,12.27
2023-01-13T09:10:19.218Z,3.17
2023-01-13T09:13:07.770Z,1.90
2023-01-13T09:15:34.861Z,1.60
2023-01-13T09:18:02.748Z,1.60
2023-01-13T09:20:32.130Z,1.38
2023-01-13T09:22:59.234Z,1.20
2023-01-13T09:25:28.699Z,1.20
2023-01-13T09:27:56.356Z,3.33
2023-01-13T09:30:23.576Z,1.50
2023-01-13T09:33:10.678Z,1.30
2023-01-13T09:35:39.993Z,1.30
2023-01-13T09:38:07.603Z,1.45
2023-01-13T09:40:40.540Z,2.80
2023-01-13T09:43:38.778Z,2.28
2023-01-13T09:46:38.051Z,1.55
2023-01-13T09:49:05.465Z,3.25
2023-01-13T09:51:51.423Z,1.90
2023-01-13T09:54:32.192Z,1.53
2023-01-13T09:56:59.836Z,1.30
2023-01-13T09:59:36.524Z,1.60
2023-01-13T10:02:31.461Z,2.08
2023-01-13T10:05:24.817Z,2.40
2023-01-13T10:07:57.233Z,2.40
2023-01-13T10:10:39.843Z,1.98
2023-01-13T10:13:16.352Z,2.50
2023-01-13T10:16:03.259Z,1.70
2023-01-13T10:22:15.297Z,1.30
2023-01-13T10:25:20.600Z,1.60
2023-01-13T10:27:52.783Z,1.30
2023-01-13T10:30:31.499Z,1.30
2023-01-13T10:33:01.857Z,1.55
2023-01-13T10:35:50.894Z,1.50
2023-01-13T10:38:24.090Z,1.13
2023-01-13T10:40:58.565Z,1.80
2023-01-13T10:43:27.335Z,2.88
2023-01-13T10:46:12.781Z,1.10
2023-01-13T10:48:53.651Z,1.83
2023-01-13T10:51:25.127Z,1.70
2023-01-13T10:54:02.805Z,1.08
2023-01-13T10:56:33.834Z,1.40
2023-01-13T10:59:36.432Z,1.30
2023-01-13T11:02:23.489Z,1.20
2023-01-13T11:05:00.834Z,1.40
2023-01-13T11:07:35.074Z,1.25
2023-01-13T11:10:21.054Z,2.72
2023-01-13T11:12:51.941Z,2.72
2023-01-13T11:15:25.233Z,1.40
2023-01-13T11:18:01.690Z,0.90
2023-01-13T11:20:39.333Z,1.92
2023-01-13T11:23:35.680Z,1.00
2023-01-13T11:26:13.803Z,1.75
2023-01-13T11:28:58.469Z,1.17
2023-01-13T11:31:34.004Z,1.42
2023-01-13T11:34:35.889Z,1.80
2023-01-13T11:37:10.589Z,1.13
2023-01-13T11:39:46.886Z,1.40
2023-01-13T11:42:25.881Z,1.35
2023-01-13T11:45:20.815Z,1.60
2023-01-13T11:47:59.687Z,1.10
2023-01-13T11:51:05.138Z,2.03
2023-01-13T11:53:40.326Z,1.35
2023-01-13T11:56:29.277Z,1.42
2023-01-13T11:59:13.256Z,2.30
2023-01-13T12:01:58.067Z,7.57
2023-01-13T12:04:30.247Z,3.60
2023-01-13T12:07:23.008Z,5.70
2023-01-13T12:10:24.067Z,3.25
2023-01-13T12:13:11.956Z,2.10
2023-01-13T12:16:03.001Z,1.90
2023-01-13T12:18:42.085Z,1.83
2023-01-13T12:21:25.797Z,1.50
2023-01-13T12:24:04.835Z,2.10
2023-01-13T12:26:38.139Z,2.42
2023-01-13T12:29:14.734Z,2.47
2023-01-13T12:31:43.565Z,2.10
2023-01-13T12:34:12.613Z,1.60
2023-01-13T12:37:01.045Z,1.52
2023-01-13T12:40:00.795Z,1.90
2023-01-13T12:43:04.968Z,1.80
2023-01-13T12:45:36.957Z,3.50
2023-01-13T12:48:05.861Z,1.70
2023-01-13T12:50:32.931Z,2.28
2023-01-13T12:53:21.162Z,2.20
2023-01-13T12:55:54.301Z,2.70
2023-01-13T12:58:29.540Z,2.53
2023-01-13T13:01:00.341Z,2.15
2023-01-13T13:03:35.190Z,2.95
2023-01-13T13:06:10.923Z,2.13
2023-01-13T13:09:04.424Z,2.50
2023-01-13T13:11:57.210Z,2.23
2023-01-13T13:14:41.461Z,2.45
2023-01-13T13:17:30.327Z,2.13
2023-01-13T13:20:03.313Z,2.58
2023-01-13T13:22:42.397Z,2.05
2023-01-13T13:25:24.188Z,3.08
2023-01-13T13:28:08.592Z,3.00
2023-01-13T13:30:42.605Z,2.55
2023-01-13T13:33:20.045Z,3.90
2023-01-13T13:36:08.379Z,2.30
2023-01-13T13:38:59.943Z,3.20
2023-01-13T13:41:46.250Z,3.67
2023-01-13T13:44:45.359Z,3.25
2023-01-13T13:47:12.373Z,7.75
2023-01-13T13:49:51.927Z,2.80
2023-01-13T13:52:26.284Z,2.80
2023-01-13T13:55:00.484Z,2.42
2023-01-13T13:57:42.636Z,2.92
2023-01-13T14:00:15.739Z,2.60
2023-01-13T14:02:58.592Z,2.25
2023-01-13T14:05:29.878Z,2.40
2023-01-13T14:08:02.365Z,2.35
2023-01-13T14:10:35.586Z,2.50
2023-01-13T14:13:19.062Z,3.67
2023-01-13T14:15:47.667Z,2.92
2023-01-13T14:18:20.858Z,4.75
2023-01-13T14:21:02.154Z,3.83
2023-01-13T14:23:32.487Z,3.55
2023-01-13T14:26:12.959Z,2.65
2023-01-13T14:28:45.480Z,2.97
2023-01-13T14:31:14.085Z,2.60
2023-01-13T14:33:46.333Z,3.03
2023-01-13T14:36:24.195Z,2.63
2023-01-13T14:39:12.191Z,3.40
2023-01-13T14:41:48.288Z,2.20
2023-01-13T14:44:32.247Z,2.55
2023-01-13T14:47:05.227Z,2.78
2023-01-13T14:49:59.110Z,2.28
2023-01-13T14:52:30.887Z,2.60
2023-01-13T14:55:08.713Z,2.20
2023-01-13T14:57:42.043Z,2.65
2023-01-13T15:00:14.009Z,1.98
2023-01-13T15:02:43.171Z,1.85
2023-01-13T15:05:19.347Z,2.90
2023-01-13T15:07:57.501Z,2.50
2023-01-13T15:10:31.415Z,2.40
2023-01-13T15:13:03.618Z,2.58
2023-01-13T15:15:34.776Z,2.20
2023-01-13T15:18:05.878Z,2.53
2023-01-13T15:20:34.988Z,2.15
2023-01-13T15:23:01.987Z,2.42
2023-01-13T15:25:33.693Z,2.30
2023-01-13T15:28:00.800Z,2.25
2023-01-13T15:30:30.490Z,2.58
2023-01-13T15:32:58.357Z,2.55
2023-01-13T15:35:27.952Z,3.65
2023-01-13T15:37:58.049Z,3.45
2023-01-13T15:40:31.909Z,3.28
2023-01-13T15:43:17.642Z,3.08
2023-01-13T15:46:17.892Z,3.17
2023-01-13T15:48:53.016Z,4.95
2023-01-13T15:51:22.334Z,4.13
2023-01-13T15:53:49.415Z,3.63
2023-01-13T15:56:23.312Z,3.28
2023-01-13T15:58:50.447Z,2.78
2023-01-13T16:01:18.082Z,3.00
2023-01-13T16:03:45.168Z,3.85
2023-01-13T16:06:32.987Z,4.38
2023-01-13T16:09:03.581Z,3.88
2023-01-13T16:11:33.610Z,3.28
2023-01-13T16:14:03.203Z,3.55
2023-01-13T16:16:32.450Z,3.00
2023-01-13T16:19:00.349Z,2.92
2023-01-13T16:21:34.308Z,2.40
2023-01-13T16:24:01.298Z,3.92
2023-01-13T16:26:30.210Z,4.03
2023-01-13T16:29:00.607Z,3.88
2023-01-13T16:31:35.374Z,5.43
2023-01-13T16:34:05.853Z,6.10
2023-01-13T16:36:37.304Z,4.15
2023-01-13T16:39:05.333Z,4.15
2023-01-13T16:41:33.933Z,4.32
2023-01-13T16:44:06.155Z,5.95
2023-01-13T16:46:37.563Z,9.90
2023-01-13T16:49:06.092Z,9.60
2023-01-13T16:51:36.234Z,4.80
2023-01-13T16:54:05.512Z,5.78
2023-01-13T16:56:36.725Z,5.93
2023-01-13T16:59:08.846Z,5.20
2023-01-13T17:01:40.069Z,5.18
2023-01-13T17:04:07.825Z,4.35
2023-01-13T17:06:44.230Z,3.65
2023-01-13T17:09:19.786Z,4.45
2023-01-13T17:11:49.228Z,4.05
2023-01-13T17:14:21.727Z,5.13
2023-01-13T17:16:59.951Z,4.63
2023-01-13T17:19:27.071Z,4.80
2023-01-13T17:21:56.277Z,4.25
2023-01-13T17:24:26.018Z,3.83
2023-01-13T17:26:55.650Z,2.92
2023-01-13T17:29:25.986Z,3.22
2023-01-13T17:31:53.460Z,3.08
2023-01-13T17:34:23.140Z,3.42
2023-01-13T17:36:55.068Z,3.22
2023-01-13T17:39:26.870Z,2.90
2023-01-13T17:41:56.104Z,2.90
2023-01-13T17:44:38.218Z,4.10
2023-01-13T17:47:08.569Z,3.20
2023-01-13T17:49:40.808Z,2.00
2023-01-13T17:52:07.965Z,1.70
2023-01-13T17:54:35.246Z,1.60
2023-01-13T17:57:04.729Z,1.73
2023-01-13T17:59:32.079Z,1.50
2023-01-13T18:04:31.956Z,1.60
2023-01-13T18:06:58.979Z,1.50
2023-01-13T18:09:26.750Z,1.30
2023-01-13T18:11:55.924Z,1.67
2023-01-13T18:14:25.560Z,1.50
2023-01-13T18:16:55.177Z,1.50
2023-01-13T18:19:41.234Z,1.60
2023-01-13T18:22:31.450Z,2.10
2023-01-13T18:25:16.859Z,1.90
2023-01-13T18:27:43.991Z,1.60
2023-01-13T18:30:12.444Z,1.80
2023-01-13T18:32:42.197Z,1.50
2023-01-13T18:35:13.943Z,1.80
2023-01-13T18:37:44.388Z,1.70
2023-01-13T18:40:13.382Z,1.70
2023-01-13T18:42:58.443Z,1.90
2023-01-13T18:45:32.266Z,2.80
2023-01-13T18:48:01.765Z,2.50
2023-01-13T18:50:29.705Z,3.13
2023-01-13T18:52:59.330Z,2.25
2023-01-13T18:55:28.899Z,2.50
2023-01-13T18:57:58.956Z,2.60
2023-01-13T19:00:27.263Z,1.80
2023-01-13T19:05:34.415Z,1.20
2023-01-13T19:08:05.908Z,1.77
2023-01-13T19:10:33.065Z,2.30
2023-01-13T19:13:01.638Z,2.85
2023-01-13T19:15:31.196Z,2.65
2023-01-13T19:18:01.299Z,2.40
2023-01-13T19:20:28.309Z,1.88
2023-01-13T19:22:55.341Z,1.80
2023-01-13T19:25:24.558Z,2.10
2023-01-13T19:27:53.764Z,2.83
2023-01-13T19:30:20.911Z,2.63
2023-01-13T19:32:50.148Z,2.30
2023-01-13T19:35:18.034Z,2.30
2023-01-13T19:37:47.579Z,1.73
2023-01-13T19:40:14.708Z,2.30
2023-01-13T19:43:02.389Z,2.03
2023-01-13T19:45:31.061Z,2.13
2023-01-13T19:48:01.781Z,2.70
2023-01-13T19:50:35.097Z,3.33
2023-01-13T19:53:04.221Z,2.58
2023-01-13T19:55:32.095Z,2.88
2023-01-13T19:57:59.470Z,3.63
2023-01-13T20:05:25.786Z,3.30
2023-01-13T20:07:55.107Z,3.60
2023-01-13T20:10:24.478Z,4.32
2023-01-13T20:12:51.856Z,3.38
2023-01-13T20:17:50.794Z,3.50
2023-01-13T20:20:18.687Z,2.40
2023-01-13T20:22:49.694Z,2.17
2023-01-13T20:25:19.572Z,2.03
2023-01-13T20:27:50.209Z,2.20
2023-01-13T20:30:17.332Z,2.08
2023-01-13T20:32:44.832Z,2.50
2023-01-13T20:35:12.322Z,2.42
2023-01-13T20:37:40.382Z,2.67
2023-01-13T20:40:08.733Z,2.75
2023-01-13T20:42:45.457Z,2.35
2023-01-13T20:45:19.758Z,2.40
2023-01-13T20:47:49.495Z,2.50
2023-01-13T20:50:17.372Z,2.40
2023-01-13T20:52:52.670Z,2.35
2023-01-13T20:55:22.170Z,2.17
2023-01-13T20:57:50.088Z,2.15
2023-01-13T21:00:19.968Z,2.88
2023-01-13T21:02:47.032Z,2.28
2023-01-13T21:05:14.294Z,2.90
2023-01-13T21:07:43.843Z,3.05
2023-01-13T21:10:13.700Z,2.63
2023-01-13T21:12:59.040Z,2.50
2023-01-13T21:15:29.674Z,2.75
2023-01-13T21:18:17.459Z,2.35
2023-01-13T21:20:44.533Z,2.20
2023-01-13T21:23:11.662Z,2.15
2023-01-13T21:25:39.907Z,2.75
2023-01-13T21:28:08.164Z,2.15
2023-01-13T21:30:39.060Z,2.30
2023-01-13T21:33:09.298Z,2.33
2023-01-13T21:35:39.379Z,2.40
2023-01-13T21:38:06.473Z,2.35
2023-01-13T21:40:33.480Z,2.25
2023-01-13T21:43:18.925Z,2.33
2023-01-13T21:46:06.879Z,2.55
2023-01-13T21:48:36.409Z,2.00
2023-01-13T21:51:06.140Z,2.40
2023-01-13T21:53:35.204Z,1.88
2023-01-13T21:56:02.225Z,2.53
2023-01-13T21:58:31.669Z,2.78
2023-01-13T22:01:02.403Z,2.55
2023-01-13T22:03:52.214Z,2.40
2023-01-13T22:06:19.282Z,2.25
2023-01-13T22:08:49.145Z,2.72
2023-01-13T22:11:16.675Z,2.17
2023-01-13T22:14:02.434Z,1.88
2023-01-13T22:16:29.712Z,2.38
2023-01-13T22:21:26.058Z,2.50
2023-01-13T22:23:54.541Z,4.43
2023-01-13T22:26:21.607Z,3.03
2023-01-13T22:28:48.844Z,2.58
2023-01-13T22:31:23.944Z,2.40
2023-01-13T22:33:55.559Z,2.88
2023-01-13T22:36:28.147Z,2.35
2023-01-13T22:38:56.486Z,2.38
2023-01-13T22:41:23.855Z,2.58
2023-01-13T22:46:17.947Z,2.60
2023-01-13T22:48:46.264Z,2.63
2023-01-13T22:51:18.887Z,2.65
2023-01-13T22:53:45.915Z,2.65
2023-01-13T22:56:24.231Z,2.35
2023-01-13T22:58:55.412Z,2.30
2023-01-13T23:01:24.088Z,2.13
2023-01-13T23:03:51.561Z,2.58
2023-01-13T23:06:22.377Z,2.33
2023-01-13T23:08:55.114Z,2.03
2023-01-13T23:11:25.110Z,2.72
2023-01-13T23:13:58.591Z,2.53
2023-01-13T23:16:26.377Z,2.33
2023-01-13T23:18:55.852Z,2.58
2023-01-13T23:21:34.560Z,2.30
2023-01-13T23:24:04.323Z,2.33
2023-01-13T23:26:32.390Z,2.67
2023-01-13T23:29:11.148Z,2.75
2023-01-13T23:31:38.445Z,2.60
2023-01-13T23:34:05.443Z,2.63
2023-01-13T23:36:37.495Z,2.22
2023-01-13T23:39:04.593Z,2.15
2023-01-13T23:41:33.705Z,2.10
2023-01-13T23:44:01.555Z,2.55
2023-01-13T23:46:33.095Z,2.22
2023-01-13T23:49:03.538Z,2.17
2023-01-13T23:51:30.907Z,2.60
2023-01-13T23:56:31.249Z,2.25
2023-01-13T23:58:58.656Z,1.90
